Dumas, TX

2:08 PM CDT on March 23, 2017 (GMT -0500)
Moore County

Weather History for KDUX - August, 2013

Change the Weather History Date:

Monday, August 19, 2013

  Actual Average (KDHT) Record (KDHT)
Temperature  
Mean Temperature 76 °F -  
Max Temperature 91 °F 87 °F 101 °F (2011)
Min Temperature 61 °F 60 °F 53 °F (1956)
Cooling Degree Days 11    
Growing Degree Days 26 (Base 50)    
Moisture  
Dew Point 60 °F    
Average Humidity 58    
Maximum Humidity 87    
Minimum Humidity 32    
Precipitation  
Precipitation 0.00 in - - ()
Sea Level Pressure  
Sea Level Pressure 30.07 in    
Wind  
Wind Speed 10 mph (SSE)    
Max Wind Speed 17 mph    
Max Gust Speed 23 mph    
Visibility 10 miles    
Events      
Averages and records for this station are not official NWS values.
T = Trace of Precipitation, MM = Missing Value Source: NWS Daily Summary

Daily Weather History Graph

Daily Weather History Graph

Search for Another Location

Airport or City:

Trip Planner

Search our weather history database for the weather conditions in past years. The results will help you decide how hot, cold, wet, or windy it might be!

Date:

Astronomy

Aug. 19, 2013 Rise Set
Actual Time 7:10 AM CDT 8:32 PM CDT
Civil Twilight 6:43 AM CDT 8:59 PM CDT
Nautical Twilight 6:11 AM CDT 9:31 PM CDT
Astronomical Twilight 5:37 AM CDT 10:04 PM CDT
Moon 7:25 PM CDT (8/19) 5:32 AM CDT (8/19)
Length of Visible Light 14h 16m
Length of Day
13h 22m
Waxing Gibbous, 97% of the Moon is Illuminated
Aug 19
Waxing Gibbous
Aug 20
Full
Aug 28
Last Quarter
Sep 5
New
Sep 12
First Quarter

Hourly Weather History & Observations

Time (CDT) Temp. Heat Index Dew Point Humidity Pressure Visibility Wind Dir Wind Speed Gust Speed Precip Events Conditions
12:15 AM 73.4 °F - 59.5 °F 62% 30.11 in 10.0 mi SSE 16.1 mph 23.0 mph N/A   Clear
12:35 AM 72.9 °F - 59.2 °F 62% 30.11 in 10.0 mi SSE 15.0 mph - N/A   Clear
12:55 AM 72.7 °F - 59.0 °F 62% 30.11 in 10.0 mi SSE 15.0 mph - N/A   Clear
1:15 AM 71.8 °F - 59.0 °F 64% 30.12 in 10.0 mi SSE 12.7 mph - N/A   Clear
1:35 AM 71.6 °F - 58.6 °F 64% 30.12 in 10.0 mi SSE 11.5 mph - N/A   Clear
1:55 AM 70.9 °F - 58.6 °F 65% 30.12 in 10.0 mi SSE 9.2 mph - N/A   Clear
2:15 AM 70.3 °F - 58.6 °F 66% 30.12 in 10.0 mi South 9.2 mph - N/A   Clear
2:35 AM 69.1 °F - 58.6 °F 69% 30.11 in 10.0 mi South 9.2 mph - N/A   Clear
2:55 AM 68.4 °F - 58.5 °F 71% 30.11 in 10.0 mi South 9.2 mph - N/A   Clear
3:15 AM 68.0 °F - 58.3 °F 71% 30.10 in 10.0 mi South 9.2 mph - N/A   Clear
3:35 AM 68.0 °F - 58.1 °F 71% 30.09 in 10.0 mi South 10.4 mph - N/A   Clear
3:55 AM 67.6 °F - 57.9 °F 71% 30.08 in 10.0 mi South 10.4 mph - N/A   Clear
4:15 AM 66.4 °F - 58.1 °F 75% 30.08 in 10.0 mi South 8.1 mph - N/A   Clear
4:35 AM 65.8 °F - 57.9 °F 76% 30.08 in 10.0 mi South 8.1 mph - N/A   Clear
4:55 AM 66.2 °F - 57.7 °F 74% 30.07 in 10.0 mi South 9.2 mph - N/A   Clear
5:15 AM 66.2 °F - 57.6 °F 74% 30.07 in 10.0 mi South 9.2 mph - N/A   Clear
5:35 AM 64.9 °F - 57.6 °F 77% 30.06 in 10.0 mi South 9.2 mph - N/A   Clear
5:55 AM 64.8 °F - 57.6 °F 77% 30.06 in 10.0 mi South 9.2 mph - N/A   Clear
6:15 AM 64.0 °F - 57.6 °F 79% 30.06 in 10.0 mi South 9.2 mph - N/A   Clear
6:35 AM 63.5 °F - 57.6 °F 81% 30.05 in 10.0 mi South 10.4 mph - N/A   Clear
6:55 AM 62.8 °F - 57.7 °F 84% 30.06 in 10.0 mi South 8.1 mph - N/A   Clear
7:15 AM 61.7 °F - 57.7 °F 87% 30.06 in 10.0 mi South 8.1 mph - N/A   Clear
7:35 AM 62.1 °F - 58.1 °F 87% 30.07 in 10.0 mi SSE 8.1 mph - N/A   Clear
7:55 AM 63.7 °F - 58.5 °F 83% 30.07 in 10.0 mi SSE 6.9 mph - N/A   Clear
8:15 AM 65.5 °F - 58.5 °F 78% 30.07 in 10.0 mi South 6.9 mph - N/A   Clear
8:35 AM 67.1 °F - 59.0 °F 75% 30.07 in 10.0 mi South 6.9 mph - N/A   Clear
8:55 AM 68.4 °F - 59.0 °F 72% 30.08 in 10.0 mi South 8.1 mph - N/A   Clear
9:15 AM 70.5 °F - 59.7 °F 69% 30.08 in 10.0 mi South 6.9 mph - N/A   Clear
9:35 AM 72.3 °F - 60.3 °F 66% 30.09 in 10.0 mi South 4.6 mph - N/A   Clear
9:55 AM 73.2 °F - 59.7 °F 63% 30.10 in 10.0 mi South 3.5 mph - N/A   Clear
10:15 AM 74.3 °F - 59.9 °F 61% 30.10 in 10.0 mi SSE 3.5 mph - N/A   Clear
10:35 AM 75.4 °F - 60.3 °F 59% 30.10 in 10.0 mi SSE 4.6 mph - N/A   Clear
10:55 AM 76.6 °F - 60.4 °F 57% 30.10 in 10.0 mi SSW 4.6 mph - N/A   Clear
11:15 AM 77.2 °F - 59.2 °F 54% 30.10 in 10.0 mi SSW 3.5 mph - N/A   Clear
11:35 AM 77.9 °F - 59.9 °F 54% 30.10 in 10.0 mi South 4.6 mph - N/A   Clear
11:55 AM 79.0 °F - 61.2 °F 54% 30.10 in 10.0 mi SE 8.1 mph - N/A   Clear
12:15 PM 79.9 °F - 60.3 °F 51% 30.10 in 10.0 mi South 4.6 mph - N/A   Clear
12:35 PM 80.2 °F 81.0 °F 59.9 °F 50% 30.09 in 10.0 mi SSE 4.6 mph - N/A   Clear
12:55 PM 82.2 °F 82.6 °F 60.1 °F 47% 30.08 in 10.0 mi SSE 8.1 mph - N/A   Clear
1:15 PM 84.2 °F 84.0 °F 59.5 °F 43% 30.08 in 10.0 mi SSE 9.2 mph - N/A   Clear
1:35 PM 85.1 °F 84.8 °F 59.4 °F 42% 30.08 in 10.0 mi SSW 4.6 mph - N/A   Clear
1:55 PM 86.4 °F 85.9 °F 59.5 °F 40% 30.07 in 10.0 mi South 4.6 mph - N/A   Clear
2:15 PM 87.8 °F 87.1 °F 59.2 °F 38% 30.07 in 10.0 mi SSE 6.9 mph - N/A   Clear
2:35 PM 88.9 °F 88.3 °F 59.7 °F 37% 30.06 in 10.0 mi South 13.8 mph 17.3 mph N/A   Clear
2:55 PM 89.8 °F 88.9 °F 58.6 °F 35% 30.06 in 10.0 mi South 9.2 mph - N/A   Clear
3:15 PM 90.1 °F 89.3 °F 59.0 °F 35% 30.05 in 10.0 mi SSE 9.2 mph - N/A   Clear
3:35 PM 90.5 °F 89.8 °F 59.5 °F 35% 30.04 in 10.0 mi South 5.8 mph - N/A   Clear
3:55 PM 91.0 °F 90.2 °F 59.4 °F 34% 30.03 in 10.0 mi ESE 11.5 mph 18.4 mph N/A   Clear
4:15 PM 91.4 °F 90.7 °F 59.4 °F 34% 30.03 in 10.0 mi SE 11.5 mph 16.1 mph N/A   Clear
4:35 PM 91.6 °F 90.4 °F 57.9 °F 32% 30.02 in 10.0 mi SSE 6.9 mph 17.3 mph N/A   Clear
4:55 PM 91.6 °F 90.7 °F 58.8 °F 33% 30.02 in 10.0 mi SSE 9.2 mph 17.3 mph N/A   Clear
5:15 PM 91.8 °F 91.2 °F 59.4 °F 34% 30.02 in 10.0 mi SSE 10.4 mph - N/A   Clear
5:35 PM 91.4 °F 90.7 °F 59.7 °F 34% 30.01 in 10.0 mi SE 15.0 mph - N/A   Clear
5:55 PM 91.0 °F 90.5 °F 60.1 °F 35% 30.01 in 10.0 mi SE 11.5 mph - N/A   Clear
6:15 PM 90.1 °F 89.9 °F 60.8 °F 37% 30.01 in 10.0 mi SE 15.0 mph 20.7 mph N/A   Clear
6:35 PM 88.9 °F 89.4 °F 62.6 °F 41% 30.01 in 10.0 mi SE 17.3 mph 21.9 mph N/A   Clear
6:55 PM 87.8 °F 88.5 °F 62.6 °F 43% 30.01 in 10.0 mi ESE 16.1 mph 23.0 mph N/A   Clear
7:15 PM 86.5 °F 87.0 °F 62.2 °F 44% 30.01 in 10.0 mi SE 15.0 mph 23.0 mph N/A   Clear
7:35 PM 85.5 °F 85.7 °F 61.5 °F 44% 30.02 in 10.0 mi SE 12.7 mph - N/A   Clear
7:55 PM 83.3 °F 83.9 °F 61.7 °F 48% 30.02 in 10.0 mi ESE 11.5 mph - N/A   Clear
8:15 PM 82.2 °F 82.7 °F 60.8 °F 48% 30.02 in 10.0 mi SE 11.5 mph - N/A   Clear
8:35 PM 81.1 °F 81.8 °F 60.1 °F 49% 30.03 in 10.0 mi SE 12.7 mph - N/A   Clear
8:55 PM 79.5 °F - 60.1 °F 51% 30.03 in 10.0 mi ESE 10.4 mph - N/A   Clear
9:15 PM 78.3 °F - 61.2 °F 56% 30.04 in 10.0 mi ESE 12.7 mph - N/A   Clear
9:35 PM 77.4 °F - 61.2 °F 57% 30.04 in 10.0 mi ESE 12.7 mph - N/A   Clear
9:55 PM 76.6 °F - 61.0 °F 58% 30.05 in 10.0 mi ESE 12.7 mph - N/A   Clear
10:15 PM 76.1 °F - 61.0 °F 59% 30.06 in 10.0 mi SE 12.7 mph - N/A   Clear
10:35 PM 74.5 °F - 61.2 °F 63% 30.07 in 10.0 mi SE 9.2 mph - N/A   Clear
10:55 PM 74.1 °F - 60.8 °F 63% 30.07 in 10.0 mi SE 10.4 mph - N/A   Clear
11:15 PM 74.3 °F - 60.8 °F 63% 30.08 in 10.0 mi SSE 8.1 mph - N/A   Clear
11:35 PM 72.7 °F - 61.2 °F 67% 30.09 in 10.0 mi SSE 6.9 mph - N/A   Clear
11:55 PM 70.5 °F - 61.2 °F 72% 30.09 in 10.0 mi SSE 8.1 mph - N/A   Clear